createdAt,value
2022-12-25T00:01:07.528Z,1.15
2022-12-25T00:03:33.875Z,0.68
2022-12-25T00:06:00.268Z,1.10
2022-12-25T00:08:26.658Z,0.85
2022-12-25T00:10:59.920Z,1.20
2022-12-25T00:13:26.306Z,0.63
2022-12-25T00:15:52.640Z,0.82
2022-12-25T00:18:19.080Z,1.17
2022-12-25T00:20:45.364Z,1.02
2022-12-25T00:23:11.725Z,1.10
2022-12-25T00:25:41.397Z,0.95
2022-12-25T00:28:07.686Z,1.08
2022-12-25T00:30:34.047Z,1.00
2022-12-25T00:33:00.381Z,0.88
2022-12-25T00:35:26.742Z,1.02
2022-12-25T00:37:53.015Z,0.98
2022-12-25T00:40:19.313Z,1.33
2022-12-25T00:42:48.207Z,0.77
2022-12-25T00:45:15.990Z,0.88
2022-12-25T00:47:42.323Z,1.20
2022-12-25T00:50:08.836Z,0.68
2022-12-25T00:52:35.128Z,0.90
2022-12-25T00:55:01.362Z,1.15
2022-12-25T00:57:27.675Z,0.52
2022-12-25T00:59:53.922Z,1.02
2022-12-25T01:02:23.472Z,0.45
2022-12-25T01:04:53.106Z,0.60
2022-12-25T01:07:19.582Z,0.40
2022-12-25T01:10:04.327Z,0.55
2022-12-25T01:12:31.825Z,0.90
2022-12-25T01:14:58.107Z,1.10
2022-12-25T01:17:24.379Z,0.90
2022-12-25T01:19:50.708Z,0.70
2022-12-25T01:22:16.963Z,0.70
2022-12-25T01:24:44.130Z,0.95
2022-12-25T01:27:10.758Z,0.63
2022-12-25T01:29:37.792Z,0.68
2022-12-25T01:32:04.376Z,0.80
2022-12-25T01:34:30.713Z,0.60
2022-12-25T01:36:57.051Z,0.80
2022-12-25T01:39:23.632Z,0.65
2022-12-25T01:41:49.901Z,0.40
2022-12-25T01:44:16.182Z,1.05
2022-12-25T01:46:43.570Z,0.70
2022-12-25T01:49:15.098Z,0.60
2022-12-25T01:51:41.297Z,0.65
2022-12-25T01:54:10.212Z,0.50
2022-12-25T01:56:37.568Z,0.63
2022-12-25T01:59:04.621Z,1.35
2022-12-25T02:01:30.953Z,0.68
2022-12-25T02:04:04.471Z,0.60
2022-12-25T02:06:30.776Z,1.20
2022-12-25T02:08:58.308Z,0.73
2022-12-25T02:11:43.472Z,0.60
2022-12-25T02:14:09.840Z,0.77
2022-12-25T02:16:57.230Z,1.02
2022-12-25T02:19:42.208Z,0.93
2022-12-25T02:22:21.833Z,0.80
2022-12-25T02:24:56.877Z,1.10
2022-12-25T02:27:27.225Z,0.95
2022-12-25T02:29:58.923Z,0.82
2022-12-25T02:32:34.701Z,1.42
2022-12-25T02:35:05.058Z,0.60
2022-12-25T02:37:36.372Z,1.05
2022-12-25T02:40:09.351Z,1.23
2022-12-25T02:43:05.046Z,0.80
2022-12-25T02:45:49.867Z,1.15
2022-12-25T02:48:35.572Z,0.95
2022-12-25T02:51:22.460Z,0.45
2022-12-25T02:54:09.860Z,0.73
2022-12-25T02:57:00.247Z,0.65
2022-12-25T02:59:46.496Z,1.08
2022-12-25T03:02:32.894Z,0.80
2022-12-25T03:05:19.551Z,0.90
2022-12-25T03:07:45.913Z,0.95
2022-12-25T03:10:33.297Z,0.95
2022-12-25T03:13:12.600Z,1.05
2022-12-25T03:15:57.771Z,1.05
2022-12-25T03:18:25.658Z,0.40
2022-12-25T03:21:11.478Z,0.63
2022-12-25T03:23:57.133Z,0.75
2022-12-25T03:26:44.032Z,0.50
2022-12-25T03:29:11.095Z,0.32
2022-12-25T03:31:47.688Z,0.60
2022-12-25T03:34:35.989Z,0.63
2022-12-25T03:37:13.145Z,0.60
2022-12-25T03:40:18.422Z,0.50
2022-12-25T03:43:07.582Z,0.98
2022-12-25T03:46:12.798Z,0.47
2022-12-25T03:48:59.567Z,0.63
2022-12-25T03:51:47.941Z,0.50
2022-12-25T03:54:34.299Z,0.45
2022-12-25T03:57:19.746Z,0.57
2022-12-25T04:00:04.731Z,0.95
2022-12-25T04:02:49.524Z,0.65
2022-12-25T04:05:34.863Z,0.70
2022-12-25T04:08:19.717Z,0.40
2022-12-25T04:11:04.538Z,0.52
2022-12-25T04:13:49.261Z,0.60
2022-12-25T04:16:33.925Z,0.57
2022-12-25T04:19:18.620Z,0.70
2022-12-25T04:22:03.453Z,0.60
2022-12-25T04:24:48.234Z,0.40
2022-12-25T04:27:33.113Z,0.43
2022-12-25T04:30:18.051Z,0.60
2022-12-25T04:33:02.962Z,0.60
2022-12-25T04:35:47.801Z,0.50
2022-12-25T04:38:14.067Z,0.43
2022-12-25T04:40:40.345Z,0.60
2022-12-25T04:43:06.589Z,0.40
2022-12-25T04:45:32.892Z,0.63
2022-12-25T04:47:59.715Z,0.40
2022-12-25T04:50:25.949Z,0.60
2022-12-25T04:52:52.211Z,0.50
2022-12-25T04:55:18.598Z,0.50
2022-12-25T04:57:45.115Z,0.60
2022-12-25T05:00:11.632Z,0.70
2022-12-25T05:02:38.009Z,0.50
2022-12-25T05:05:04.522Z,0.43
2022-12-25T05:07:30.818Z,0.40
2022-12-25T05:09:57.324Z,0.32
2022-12-25T05:12:23.643Z,0.65
2022-12-25T05:14:49.945Z,0.43
2022-12-25T05:17:16.250Z,0.75
2022-12-25T05:19:42.632Z,0.30
2022-12-25T05:22:09.449Z,0.35
2022-12-25T05:24:35.693Z,0.40
2022-12-25T05:27:01.987Z,0.57
2022-12-25T05:29:28.277Z,0.50
2022-12-25T05:31:54.547Z,0.82
2022-12-25T05:34:20.784Z,0.55
2022-12-25T05:36:47.086Z,0.20
2022-12-25T05:39:13.485Z,0.52
2022-12-25T05:41:40.272Z,0.40
2022-12-25T05:44:06.551Z,0.50
2022-12-25T05:46:32.854Z,0.40
2022-12-25T05:49:00.325Z,0.40
2022-12-25T05:51:26.648Z,0.35
2022-12-25T05:53:52.984Z,0.40
2022-12-25T05:56:19.307Z,0.40
2022-12-25T05:58:45.590Z,0.30
2022-12-25T06:01:19.507Z,0.43
2022-12-25T06:03:46.352Z,0.63
2022-12-25T06:06:13.091Z,0.40
2022-12-25T06:08:39.495Z,0.40
2022-12-25T06:11:06.388Z,0.40
2022-12-25T06:13:33.472Z,0.20
2022-12-25T06:15:59.875Z,0.30
2022-12-25T06:18:26.519Z,0.50
2022-12-25T06:20:52.837Z,0.20
2022-12-25T06:23:19.194Z,0.43
2022-12-25T06:25:45.567Z,0.30
2022-12-25T06:28:11.819Z,0.30
2022-12-25T06:30:38.049Z,0.30
2022-12-25T06:33:04.435Z,0.30
2022-12-25T06:35:30.747Z,0.30
2022-12-25T06:37:59.672Z,0.57
2022-12-25T06:40:25.894Z,0.32
2022-12-25T06:42:52.160Z,0.20
2022-12-25T06:45:18.493Z,0.30
2022-12-25T06:47:44.800Z,0.30
2022-12-25T06:50:15.036Z,0.20
2022-12-25T06:52:41.353Z,0.50
2022-12-25T06:55:07.747Z,0.30
2022-12-25T06:57:34.036Z,0.30
2022-12-25T07:00:03.460Z,0.22
2022-12-25T07:02:30.606Z,0.20
2022-12-25T07:04:57.536Z,0.30
2022-12-25T07:07:23.800Z,0.22
2022-12-25T07:09:50.055Z,0.17
2022-12-25T07:12:18.632Z,0.20
2022-12-25T07:14:48.631Z,0.30
2022-12-25T07:17:15.786Z,0.30
2022-12-25T07:19:45.169Z,0.32
2022-12-25T07:22:12.092Z,0.30
2022-12-25T07:24:38.326Z,0.30
2022-12-25T07:27:04.796Z,0.28
2022-12-25T07:29:31.095Z,0.20
2022-12-25T07:31:57.518Z,0.25
2022-12-25T07:34:23.979Z,0.50
2022-12-25T07:36:50.343Z,0.30
2022-12-25T07:39:16.884Z,0.17
2022-12-25T07:41:43.590Z,0.20
2022-12-25T07:44:09.931Z,0.30
2022-12-25T07:46:36.206Z,0.20
2022-12-25T07:49:02.525Z,0.13
2022-12-25T07:51:30.147Z,0.25
2022-12-25T07:53:56.871Z,0.30
2022-12-25T07:56:23.153Z,0.20
2022-12-25T07:58:49.679Z,0.45
2022-12-25T08:01:18.216Z,0.20
2022-12-25T08:03:48.335Z,0.25
2022-12-25T08:06:14.632Z,0.10
2022-12-25T08:08:41.992Z,0.20
2022-12-25T08:11:09.541Z,0.20
2022-12-25T08:13:36.050Z,0.20
2022-12-25T08:16:03.557Z,0.20
2022-12-25T08:18:30.585Z,0.20
2022-12-25T08:20:57.163Z,0.30
2022-12-25T08:23:23.405Z,0.10
2022-12-25T08:25:49.641Z,0.40
2022-12-25T08:28:16.200Z,0.28
2022-12-25T08:30:42.532Z,0.10
2022-12-25T08:33:08.781Z,0.13
2022-12-25T08:35:35.035Z,0.38
2022-12-25T08:38:01.430Z,0.20
2022-12-25T08:40:28.031Z,0.30
2022-12-25T08:42:57.564Z,0.20
2022-12-25T08:45:24.999Z,0.30
2022-12-25T08:47:54.742Z,0.20
2022-12-25T08:50:22.041Z,0.15
2022-12-25T08:52:48.321Z,0.10
2022-12-25T08:55:14.920Z,0.20
2022-12-25T08:57:41.449Z,0.20
2022-12-25T09:00:08.352Z,0.20
2022-12-25T09:02:34.791Z,0.20
2022-12-25T09:05:01.207Z,0.10
2022-12-25T09:07:27.479Z,0.30
2022-12-25T09:09:53.762Z,0.22
2022-12-25T09:12:20.044Z,0.10
2022-12-25T09:14:46.393Z,0.30
2022-12-25T09:17:12.671Z,0.20
2022-12-25T09:19:38.929Z,0.20
2022-12-25T09:22:05.148Z,0.32
2022-12-25T09:24:31.442Z,0.30
2022-12-25T09:26:57.755Z,0.17
2022-12-25T09:29:24.023Z,0.13
2022-12-25T09:31:50.302Z,0.20
2022-12-25T09:34:18.947Z,0.20
2022-12-25T09:36:45.567Z,0.40
2022-12-25T09:39:11.851Z,0.85
2022-12-25T09:42:07.583Z,0.30
2022-12-25T09:44:36.771Z,0.35
2022-12-25T09:47:05.803Z,0.20
2022-12-25T09:49:53.486Z,0.10
2022-12-25T09:52:21.856Z,2.17
2022-12-25T09:54:59.990Z,0.40
2022-12-25T09:57:26.446Z,0.20
2022-12-25T09:59:54.360Z,0.20
2022-12-25T10:02:53.225Z,0.25
2022-12-25T10:05:34.382Z,0.13
2022-12-25T10:08:18.890Z,0.20
2022-12-25T10:11:06.957Z,0.63
2022-12-25T10:13:56.311Z,0.20
2022-12-25T10:16:32.740Z,0.20
2022-12-25T10:19:01.998Z,0.20
2022-12-25T10:21:28.503Z,0.22
2022-12-25T10:24:06.856Z,0.13
2022-12-25T10:26:33.950Z,0.30
2022-12-25T10:29:02.827Z,0.20
2022-12-25T10:31:30.146Z,0.20
2022-12-25T10:33:56.544Z,0.15
2022-12-25T10:36:24.164Z,0.55
2022-12-25T10:38:50.444Z,0.10
2022-12-25T10:41:20.963Z,0.22
2022-12-25T10:43:51.801Z,0.20
2022-12-25T10:46:19.283Z,0.30
2022-12-25T10:48:53.696Z,0.22
2022-12-25T10:51:26.798Z,0.30
2022-12-25T10:53:53.036Z,0.38
2022-12-25T10:56:19.511Z,0.32
2022-12-25T10:58:45.825Z,0.10
2022-12-25T11:01:12.553Z,0.30
2022-12-25T11:03:40.453Z,0.25
2022-12-25T11:06:07.500Z,0.20
2022-12-25T11:08:34.647Z,0.20
2022-12-25T11:11:08.242Z,0.20
2022-12-25T11:13:36.138Z,0.52
2022-12-25T11:16:25.546Z,0.20
2022-12-25T11:18:52.909Z,0.20
2022-12-25T11:21:23.689Z,0.30
2022-12-25T11:23:55.127Z,0.20
2022-12-25T11:26:21.358Z,0.30
2022-12-25T11:28:49.170Z,0.10
2022-12-25T11:31:20.515Z,0.30
2022-12-25T11:33:52.401Z,0.10
2022-12-25T11:36:39.019Z,0.20
2022-12-25T11:39:14.189Z,0.20
2022-12-25T11:41:41.514Z,0.10
2022-12-25T11:44:16.262Z,0.13
2022-12-25T11:46:46.164Z,0.52
2022-12-25T11:49:15.857Z,0.10
2022-12-25T11:51:43.607Z,0.22
2022-12-25T11:54:18.181Z,0.17
2022-12-25T11:56:44.639Z,0.10
2022-12-25T11:59:17.933Z,0.20
2022-12-25T12:01:44.736Z,0.30
2022-12-25T12:04:17.349Z,0.30
2022-12-25T12:06:52.778Z,0.28
2022-12-25T12:09:34.481Z,0.10
2022-12-25T12:12:10.247Z,0.20
2022-12-25T12:14:45.573Z,0.20
2022-12-25T12:17:13.232Z,0.20
2022-12-25T12:19:39.654Z,0.20
2022-12-25T12:22:06.185Z,0.20
2022-12-25T12:24:37.198Z,0.20
2022-12-25T12:27:16.387Z,0.20
2022-12-25T12:29:44.489Z,0.10
2022-12-25T12:32:25.691Z,0.63
2022-12-25T12:34:52.086Z,0.10
2022-12-25T12:37:24.955Z,0.10
2022-12-25T12:39:53.727Z,0.15
2022-12-25T12:42:28.668Z,0.10
2022-12-25T12:44:56.641Z,0.20
2022-12-25T12:47:30.287Z,0.20
2022-12-25T12:50:00.229Z,0.20
2022-12-25T12:52:37.115Z,0.30
2022-12-25T12:55:03.376Z,0.30
2022-12-25T12:57:32.760Z,0.10
2022-12-25T13:00:08.526Z,0.20
2022-12-25T13:02:52.408Z,0.20
2022-12-25T13:05:39.188Z,0.23
2022-12-25T13:08:24.410Z,0.25
2022-12-25T13:10:52.717Z,0.10
2022-12-25T13:13:18.924Z,0.45
2022-12-25T13:15:46.303Z,0.10
2022-12-25T13:18:13.001Z,0.28
2022-12-25T13:20:45.416Z,0.15
2022-12-25T13:23:32.609Z,0.20
2022-12-25T13:26:02.867Z,0.10
2022-12-25T13:28:35.867Z,0.10
2022-12-25T13:31:18.755Z,0.32
2022-12-25T13:33:46.424Z,0.10
2022-12-25T13:36:13.584Z,0.17
2022-12-25T13:38:44.096Z,0.10
2022-12-25T13:41:29.212Z,0.10
2022-12-25T13:43:57.934Z,0.20
2022-12-25T13:46:27.499Z,0.10
2022-12-25T13:49:02.867Z,0.08
2022-12-25T13:51:29.185Z,0.10
2022-12-25T13:54:05.588Z,0.20
2022-12-25T13:56:32.132Z,0.10
2022-12-25T13:58:58.458Z,0.10
2022-12-25T14:01:24.917Z,0.20
2022-12-25T14:03:51.445Z,0.20
2022-12-25T14:06:17.670Z,0.10
2022-12-25T14:08:44.416Z,0.20
2022-12-25T14:11:11.059Z,0.20
2022-12-25T14:13:38.414Z,0.10
2022-12-25T14:16:05.130Z,0.10
2022-12-25T14:18:31.358Z,0.13
2022-12-25T14:21:03.889Z,0.10
2022-12-25T14:23:49.448Z,0.20
2022-12-25T14:26:16.915Z,0.10
2022-12-25T14:28:55.226Z,0.10
2022-12-25T14:31:21.903Z,0.20
2022-12-25T14:33:48.372Z,0.20
2022-12-25T14:36:14.862Z,0.20
2022-12-25T14:38:42.509Z,0.30
2022-12-25T14:41:22.645Z,0.20
2022-12-25T14:43:52.997Z,0.28
2022-12-25T14:46:26.341Z,0.00
2022-12-25T14:49:02.512Z,0.20
2022-12-25T14:51:29.873Z,0.00
2022-12-25T14:53:57.712Z,0.00
2022-12-25T14:56:25.176Z,0.10
2022-12-25T14:58:53.144Z,0.00
2022-12-25T15:01:28.544Z,0.03
2022-12-25T15:04:10.005Z,0.10
2022-12-25T15:06:36.736Z,0.05
2022-12-25T15:09:04.502Z,0.10
2022-12-25T15:11:30.859Z,0.10
2022-12-25T15:13:57.699Z,0.10
2022-12-25T15:16:29.574Z,0.10
2022-12-25T15:18:56.099Z,0.10
2022-12-25T15:21:27.024Z,0.10
2022-12-25T15:23:54.058Z,0.10
2022-12-25T15:26:20.407Z,0.45
2022-12-25T15:28:46.675Z,0.00
2022-12-25T15:31:25.253Z,0.00
2022-12-25T15:33:52.431Z,0.00
2022-12-25T15:36:18.717Z,0.05
2022-12-25T15:38:45.134Z,0.00
2022-12-25T15:41:36.221Z,0.00
2022-12-25T15:44:03.219Z,0.00
2022-12-25T15:46:29.559Z,0.00
2022-12-25T15:48:55.904Z,0.10
2022-12-25T15:51:22.746Z,0.10
2022-12-25T15:53:49.016Z,0.00
2022-12-25T15:56:15.869Z,0.00
2022-12-25T15:58:44.474Z,0.00
2022-12-25T16:01:15.390Z,0.10
2022-12-25T16:03:42.581Z,0.08
2022-12-25T16:06:10.930Z,0.00
2022-12-25T16:08:40.016Z,0.10
2022-12-25T16:11:06.830Z,0.10
2022-12-25T16:13:33.319Z,0.10
2022-12-25T16:15:59.821Z,0.28
2022-12-25T16:18:26.210Z,0.05
2022-12-25T16:20:53.039Z,0.30
2022-12-25T16:23:19.382Z,0.10
2022-12-25T16:25:45.768Z,0.05
2022-12-25T16:28:12.075Z,0.10
2022-12-25T16:30:39.297Z,0.30
2022-12-25T16:33:06.156Z,0.03
2022-12-25T16:35:33.013Z,0.00
2022-12-25T16:37:59.517Z,0.00
2022-12-25T16:40:26.084Z,0.00
2022-12-25T16:42:52.375Z,0.13
2022-12-25T16:45:18.730Z,0.10
2022-12-25T16:47:44.969Z,0.17
2022-12-25T16:50:11.362Z,0.00
2022-12-25T16:52:37.679Z,0.30
2022-12-25T16:55:04.580Z,0.10
2022-12-25T16:57:31.609Z,0.05
2022-12-25T16:59:57.870Z,0.30
2022-12-25T17:02:24.533Z,0.30
2022-12-25T17:04:51.024Z,0.30
2022-12-25T17:07:17.886Z,0.08
2022-12-25T17:09:46.973Z,0.05
2022-12-25T17:12:13.310Z,1.45
2022-12-25T17:14:39.606Z,1.55
2022-12-25T17:17:05.874Z,5.35
2022-12-25T17:19:32.127Z,1.63
2022-12-25T17:21:59.698Z,6.47
2022-12-25T17:24:27.025Z,5.00
2022-12-25T17:26:53.335Z,6.10
2022-12-25T17:29:22.366Z,9.18
2022-12-25T17:31:49.568Z,10.48
2022-12-25T17:34:16.006Z,7.90
2022-12-25T17:36:42.397Z,4.85
2022-12-25T17:39:09.653Z,10.30
2022-12-25T17:41:35.989Z,5.25
2022-12-25T17:44:02.349Z,3.53
2022-12-25T17:46:30.025Z,3.05
2022-12-25T17:48:58.949Z,11.65
2022-12-25T17:51:25.987Z,1.85
2022-12-25T17:53:56.997Z,5.05
2022-12-25T17:56:23.379Z,6.35
2022-12-25T17:58:51.188Z,4.13
2022-12-25T18:01:17.854Z,4.70
2022-12-25T18:03:44.985Z,11.52
2022-12-25T18:06:13.287Z,13.50
2022-12-25T18:08:40.290Z,7.78
2022-12-25T18:11:07.972Z,13.15
2022-12-25T18:13:34.390Z,5.47
2022-12-25T18:16:04.338Z,5.55
2022-12-25T18:18:30.946Z,9.93
2022-12-25T18:20:57.198Z,6.10
2022-12-25T18:23:23.494Z,5.68
2022-12-25T18:25:49.875Z,1.77
2022-12-25T18:28:16.228Z,1.15
2022-12-25T18:30:42.798Z,3.75
2022-12-25T18:33:09.631Z,3.92
2022-12-25T18:35:40.517Z,3.45
2022-12-25T18:38:07.033Z,0.30
2022-12-25T18:40:33.267Z,2.03
2022-12-25T18:43:03.379Z,5.38
2022-12-25T18:45:30.007Z,4.47
2022-12-25T18:47:56.472Z,1.83
2022-12-25T18:50:22.756Z,5.13
2022-12-25T18:52:51.673Z,8.57
2022-12-25T18:55:18.473Z,5.07
2022-12-25T18:57:44.791Z,3.30
2022-12-25T19:00:11.251Z,8.93
2022-12-25T19:02:37.724Z,1.98
2022-12-25T19:05:04.184Z,0.63
2022-12-25T19:07:30.462Z,3.13
2022-12-25T19:09:56.769Z,3.70
2022-12-25T19:12:23.606Z,0.75
2022-12-25T19:14:50.506Z,3.30
2022-12-25T19:17:17.686Z,0.52
2022-12-25T19:19:43.995Z,1.88
2022-12-25T19:22:10.395Z,1.63
2022-12-25T19:24:36.948Z,3.70
2022-12-25T19:27:03.532Z,2.40
2022-12-25T19:29:30.089Z,0.82
2022-12-25T19:31:56.473Z,0.40
2022-12-25T19:34:22.845Z,2.58
2022-12-25T19:36:49.337Z,4.05
2022-12-25T19:39:15.824Z,2.78
2022-12-25T19:41:42.060Z,0.40
2022-12-25T19:44:08.560Z,1.90
2022-12-25T19:46:36.057Z,2.08
2022-12-25T19:49:04.217Z,0.95
2022-12-25T19:51:32.597Z,0.63
2022-12-25T19:53:59.264Z,0.70
2022-12-25T19:56:26.781Z,0.30
2022-12-25T19:58:53.422Z,0.90
2022-12-25T20:01:21.833Z,0.10
2022-12-25T20:03:48.468Z,0.45
2022-12-25T20:06:33.287Z,0.20
2022-12-25T20:09:00.749Z,0.40
2022-12-25T20:11:28.318Z,0.20
2022-12-25T20:13:55.151Z,0.68
2022-12-25T20:16:21.674Z,0.38
2022-12-25T20:18:47.976Z,0.20
2022-12-25T20:21:15.266Z,0.47
2022-12-25T20:23:42.653Z,0.10
2022-12-25T20:26:09.927Z,0.70
2022-12-25T20:28:36.838Z,0.20
2022-12-25T20:31:06.795Z,0.50
2022-12-25T20:33:36.232Z,0.50
2022-12-25T20:36:03.291Z,0.10
2022-12-25T20:38:30.092Z,0.25
2022-12-25T20:41:27.014Z,0.13
2022-12-25T20:43:47.622Z,0.45
2022-12-25T20:46:14.359Z,0.40
2022-12-25T20:48:40.708Z,0.45
2022-12-25T20:51:08.628Z,0.20
2022-12-25T20:53:34.971Z,0.65
2022-12-25T20:56:01.559Z,0.10
2022-12-25T20:58:27.956Z,0.30
2022-12-25T21:00:54.271Z,0.30
2022-12-25T21:03:20.689Z,0.10
2022-12-25T21:05:53.984Z,0.13
2022-12-25T21:08:21.239Z,0.30
2022-12-25T21:10:50.545Z,0.20
2022-12-25T21:13:17.318Z,0.20
2022-12-25T21:15:44.543Z,0.20
2022-12-25T21:18:10.835Z,0.28
2022-12-25T21:20:37.162Z,0.45
2022-12-25T21:23:03.630Z,0.45
2022-12-25T21:25:29.984Z,0.50
2022-12-25T21:27:56.312Z,0.30
2022-12-25T21:30:22.600Z,0.10
2022-12-25T21:33:07.698Z,0.17
2022-12-25T21:35:36.114Z,0.30
2022-12-25T21:38:02.412Z,0.30
2022-12-25T21:40:28.794Z,0.30
2022-12-25T21:42:55.078Z,0.50
2022-12-25T21:45:21.351Z,0.40
2022-12-25T21:48:01.582Z,0.32
2022-12-25T21:50:48.105Z,0.30
2022-12-25T21:53:15.134Z,0.52
2022-12-25T21:55:41.383Z,0.10
2022-12-25T21:58:07.969Z,0.38
2022-12-25T22:00:34.266Z,0.40
2022-12-25T22:03:00.659Z,0.20
2022-12-25T22:05:45.762Z,0.20
2022-12-25T22:08:12.006Z,0.20
2022-12-25T22:10:38.300Z,0.22
2022-12-25T22:13:23.146Z,0.10
2022-12-25T22:16:07.955Z,0.20
2022-12-25T22:18:53.455Z,0.10
2022-12-25T22:21:20.412Z,0.10
2022-12-25T22:23:47.329Z,0.00
2022-12-25T22:26:20.477Z,0.10
2022-12-25T22:28:47.207Z,0.00
2022-12-25T22:31:14.332Z,0.00
2022-12-25T22:33:40.832Z,0.10
2022-12-25T22:36:08.122Z,0.05
2022-12-25T22:38:34.619Z,0.10
2022-12-25T22:41:07.122Z,0.10
2022-12-25T22:44:06.817Z,0.10
2022-12-25T22:46:19.799Z,0.30
2022-12-25T22:48:46.177Z,0.10
2022-12-25T22:51:12.854Z,0.20
2022-12-25T22:53:39.108Z,0.10
2022-12-25T22:56:08.183Z,0.10
2022-12-25T22:58:34.507Z,0.30
2022-12-25T23:01:00.917Z,0.20
2022-12-25T23:03:27.334Z,0.20
2022-12-25T23:05:54.745Z,0.60
2022-12-25T23:08:21.538Z,0.20
2022-12-25T23:10:47.843Z,0.10
2022-12-25T23:13:32.728Z,0.28
2022-12-25T23:15:59.007Z,0.20
2022-12-25T23:18:43.736Z,0.20
2022-12-25T23:21:31.999Z,0.10
2022-12-25T23:24:16.856Z,0.20
2022-12-25T23:26:44.285Z,0.20
2022-12-25T23:29:29.167Z,0.03
2022-12-25T23:31:56.887Z,0.08
2022-12-25T23:34:23.319Z,0.20
2022-12-25T23:36:49.601Z,0.05
2022-12-25T23:39:15.825Z,0.10
2022-12-25T23:41:42.950Z,0.20
2022-12-25T23:44:10.553Z,0.17
2022-12-25T23:46:37.326Z,0.10
2022-12-25T23:49:03.763Z,0.05
2022-12-25T23:51:30.083Z,0.20
2022-12-25T23:53:56.493Z,0.03
2022-12-25T23:56:22.779Z,0.32
2022-12-25T23:58:51.749Z,0.05
